sensor_id;sensor_type;location;lat;lon;timestamp;temperature;humidity
30534;DHT22;17318;52.390;9.754;2023-08-24T00:00:45;20.00;99.90
30534;DHT22;17318;52.390;9.754;2023-08-24T00:03:10;19.90;99.90
30534;DHT22;17318;52.390;9.754;2023-08-24T00:05:36;19.80;99.90
30534;DHT22;17318;52.390;9.754;2023-08-24T00:08:11;19.80;99.90
30534;DHT22;17318;52.390;9.754;2023-08-24T00:10:37;19.80;99.90
30534;DHT22;17318;52.390;9.754;2023-08-24T00:13:03;19.80;99.90
30534;DHT22;17318;52.390;9.754;2023-08-24T00:15:29;19.80;99.90
30534;DHT22;17318;52.390;9.754;2023-08-24T00:17:55;19.70;99.90
30534;DHT22;17318;52.390;9.754;2023-08-24T00:20:20;19.80;99.90
30534;DHT22;17318;52.390;9.754;2023-08-24T00:22:46;19.70;99.90
30534;DHT22;17318;52.390;9.754;2023-08-24T00:25:12;19.70;99.90
30534;DHT22;17318;52.390;9.754;2023-08-24T00:27:38;19.70;99.90
30534;DHT22;17318;52.390;9.754;2023-08-24T00:30:04;19.70;99.90
30534;DHT22;17318;52.390;9.754;2023-08-24T00:32:35;19.60;99.90
30534;DHT22;17318;52.390;9.754;2023-08-24T00:35:04;19.60;99.90
30534;DHT22;17318;52.390;9.754;2023-08-24T00:37:31;19.60;99.90
30534;DHT22;17318;52.390;9.754;2023-08-24T00:39:59;19.50;99.90
30534;DHT22;17318;52.390;9.754;2023-08-24T00:42:25;19.50;99.90
30534;DHT22;17318;52.390;9.754;2023-08-24T00:44:51;19.50;99.90
30534;DHT22;17318;52.390;9.754;2023-08-24T00:47:17;19.50;99.90
30534;DHT22;17318;52.390;9.754;2023-08-24T00:49:43;19.40;99.90
30534;DHT22;17318;52.390;9.754;2023-08-24T00:52:08;19.30;99.90
30534;DHT22;17318;52.390;9.754;2023-08-24T00:54:34;19.30;99.90
30534;DHT22;17318;52.390;9.754;2023-08-24T00:57:00;19.30;99.90
30534;DHT22;17318;52.390;9.754;2023-08-24T00:59:26;19.30;99.90
30534;DHT22;17318;52.390;9.754;2023-08-24T01:01:52;19.30;99.90
30534;DHT22;17318;52.390;9.754;2023-08-24T01:04:18;19.30;99.90
30534;DHT22;17318;52.390;9.754;2023-08-24T01:06:43;19.30;99.90
30534;DHT22;17318;52.390;9.754;2023-08-24T01:09:08;19.30;99.90
30534;DHT22;17318;52.390;9.754;2023-08-24T01:16:34;19.40;99.90
30534;DHT22;17318;52.390;9.754;2023-08-24T01:19:06;19.30;99.90
30534;DHT22;17318;52.390;9.754;2023-08-24T01:21:34;19.40;99.90
30534;DHT22;17318;52.390;9.754;2023-08-24T01:24:04;19.30;99.90
30534;DHT22;17318;52.390;9.754;2023-08-24T01:26:35;19.30;99.90
30534;DHT22;17318;52.390;9.754;2023-08-24T01:29:01;19.30;99.90
30534;DHT22;17318;52.390;9.754;2023-08-24T01:31:29;19.30;99.90
30534;DHT22;17318;52.390;9.754;2023-08-24T01:33:55;19.30;99.90
30534;DHT22;17318;52.390;9.754;2023-08-24T01:36:20;19.20;99.90
30534;DHT22;17318;52.390;9.754;2023-08-24T01:38:53;19.20;99.90
30534;DHT22;17318;52.390;9.754;2023-08-24T01:41:22;19.20;99.90
30534;DHT22;17318;52.390;9.754;2023-08-24T01:43:51;19.20;99.90
30534;DHT22;17318;52.390;9.754;2023-08-24T01:46:17;19.20;99.90
30534;DHT22;17318;52.390;9.754;2023-08-24T01:48:45;19.10;99.90
30534;DHT22;17318;52.390;9.754;2023-08-24T01:51:11;19.10;99.90
30534;DHT22;17318;52.390;9.754;2023-08-24T01:53:38;19.10;99.90
30534;DHT22;17318;52.390;9.754;2023-08-24T01:56:14;19.10;99.90
30534;DHT22;17318;52.390;9.754;2023-08-24T01:58:40;19.00;99.90
30534;DHT22;17318;52.390;9.754;2023-08-24T02:01:06;19.00;99.90
30534;DHT22;17318;52.390;9.754;2023-08-24T02:03:32;19.00;99.90
30534;DHT22;17318;52.390;9.754;2023-08-24T02:05:58;19.00;99.90
30534;DHT22;17318;52.390;9.754;2023-08-24T02:08:23;19.00;99.90
30534;DHT22;17318;52.390;9.754;2023-08-24T02:10:49;18.90;99.90
30534;DHT22;17318;52.390;9.754;2023-08-24T02:13:15;18.90;99.90
30534;DHT22;17318;52.390;9.754;2023-08-24T02:15:40;19.00;99.90
30534;DHT22;17318;52.390;9.754;2023-08-24T02:18:08;19.00;99.90
30534;DHT22;17318;52.390;9.754;2023-08-24T02:20:37;19.00;99.90
30534;DHT22;17318;52.390;9.754;2023-08-24T02:23:03;18.90;99.90
30534;DHT22;17318;52.390;9.754;2023-08-24T02:25:29;19.00;99.90
30534;DHT22;17318;52.390;9.754;2023-08-24T02:27:54;18.90;99.90
30534;DHT22;17318;52.390;9.754;2023-08-24T02:30:20;18.90;99.90
30534;DHT22;17318;52.390;9.754;2023-08-24T02:32:45;18.90;99.90
30534;DHT22;17318;52.390;9.754;2023-08-24T02:35:11;18.80;99.90
30534;DHT22;17318;52.390;9.754;2023-08-24T02:37:36;18.80;99.90
30534;DHT22;17318;52.390;9.754;2023-08-24T02:40:02;18.80;99.90
30534;DHT22;17318;52.390;9.754;2023-08-24T02:42:30;18.80;99.90
30534;DHT22;17318;52.390;9.754;2023-08-24T02:44:55;18.80;99.90
30534;DHT22;17318;52.390;9.754;2023-08-24T02:47:21;18.70;99.90
30534;DHT22;17318;52.390;9.754;2023-08-24T02:49:47;18.70;99.90
30534;DHT22;17318;52.390;9.754;2023-08-24T02:52:12;18.60;99.90
30534;DHT22;17318;52.390;9.754;2023-08-24T02:54:38;18.60;99.90
30534;DHT22;17318;52.390;9.754;2023-08-24T02:57:03;18.60;99.90
30534;DHT22;17318;52.390;9.754;2023-08-24T02:59:29;18.60;99.90
30534;DHT22;17318;52.390;9.754;2023-08-24T03:01:54;18.50;99.90
30534;DHT22;17318;52.390;9.754;2023-08-24T03:04:20;18.40;99.90
30534;DHT22;17318;52.390;9.754;2023-08-24T03:06:46;18.40;99.90
30534;DHT22;17318;52.390;9.754;2023-08-24T03:09:12;18.30;99.90
30534;DHT22;17318;52.390;9.754;2023-08-24T03:11:38;18.30;99.90
30534;DHT22;17318;52.390;9.754;2023-08-24T03:14:03;18.30;99.90
30534;DHT22;17318;52.390;9.754;2023-08-24T03:16:29;18.30;99.90
30534;DHT22;17318;52.390;9.754;2023-08-24T03:18:54;18.30;99.90
30534;DHT22;17318;52.390;9.754;2023-08-24T03:21:20;18.30;99.90
30534;DHT22;17318;52.390;9.754;2023-08-24T03:23:46;18.20;99.90
30534;DHT22;17318;52.390;9.754;2023-08-24T03:26:11;18.20;99.90
30534;DHT22;17318;52.390;9.754;2023-08-24T03:28:37;18.20;99.90
30534;DHT22;17318;52.390;9.754;2023-08-24T03:31:02;18.20;99.90
30534;DHT22;17318;52.390;9.754;2023-08-24T03:33:28;18.10;99.90
30534;DHT22;17318;52.390;9.754;2023-08-24T03:35:54;18.10;99.90
30534;DHT22;17318;52.390;9.754;2023-08-24T03:38:19;18.10;99.90
30534;DHT22;17318;52.390;9.754;2023-08-24T03:40:45;18.10;99.90
30534;DHT22;17318;52.390;9.754;2023-08-24T03:43:11;18.10;99.90
30534;DHT22;17318;52.390;9.754;2023-08-24T03:45:36;18.10;99.90
30534;DHT22;17318;52.390;9.754;2023-08-24T03:48:02;18.10;99.90
30534;DHT22;17318;52.390;9.754;2023-08-24T03:50:27;18.20;99.90
30534;DHT22;17318;52.390;9.754;2023-08-24T03:52:53;18.10;99.90
30534;DHT22;17318;52.390;9.754;2023-08-24T03:55:20;18.10;99.90
30534;DHT22;17318;52.390;9.754;2023-08-24T03:57:45;18.20;99.90
30534;DHT22;17318;52.390;9.754;2023-08-24T04:00:11;18.10;99.90
30534;DHT22;17318;52.390;9.754;2023-08-24T04:02:40;18.00;99.90
30534;DHT22;17318;52.390;9.754;2023-08-24T04:05:06;18.00;99.90
30534;DHT22;17318;52.390;9.754;2023-08-24T04:07:32;18.00;99.90
30534;DHT22;17318;52.390;9.754;2023-08-24T04:09:58;18.00;99.90
30534;DHT22;17318;52.390;9.754;2023-08-24T04:12:23;18.00;99.90
30534;DHT22;17318;52.390;9.754;2023-08-24T04:14:49;18.00;99.90
30534;DHT22;17318;52.390;9.754;2023-08-24T04:17:15;18.00;99.90
30534;DHT22;17318;52.390;9.754;2023-08-24T04:19:40;18.00;99.90
30534;DHT22;17318;52.390;9.754;2023-08-24T04:22:06;17.90;99.90
30534;DHT22;17318;52.390;9.754;2023-08-24T04:24:31;18.00;99.90
30534;DHT22;17318;52.390;9.754;2023-08-24T04:26:57;18.00;99.90
30534;DHT22;17318;52.390;9.754;2023-08-24T04:29:23;18.00;99.90
30534;DHT22;17318;52.390;9.754;2023-08-24T04:31:48;17.90;99.90
30534;DHT22;17318;52.390;9.754;2023-08-24T04:34:14;17.80;99.90
30534;DHT22;17318;52.390;9.754;2023-08-24T04:36:39;17.90;99.90
30534;DHT22;17318;52.390;9.754;2023-08-24T04:39:05;17.90;99.90
30534;DHT22;17318;52.390;9.754;2023-08-24T04:41:30;17.90;99.90
30534;DHT22;17318;52.390;9.754;2023-08-24T04:43:56;17.90;99.90
30534;DHT22;17318;52.390;9.754;2023-08-24T04:46:21;17.90;99.90
30534;DHT22;17318;52.390;9.754;2023-08-24T04:48:47;18.00;99.90
30534;DHT22;17318;52.390;9.754;2023-08-24T04:51:13;18.10;99.90
30534;DHT22;17318;52.390;9.754;2023-08-24T04:53:38;18.20;99.90
30534;DHT22;17318;52.390;9.754;2023-08-24T04:56:04;18.20;99.90
30534;DHT22;17318;52.390;9.754;2023-08-24T04:58:29;18.20;99.90
30534;DHT22;17318;52.390;9.754;2023-08-24T05:00:55;18.30;99.90
30534;DHT22;17318;52.390;9.754;2023-08-24T05:03:21;18.40;99.90
30534;DHT22;17318;52.390;9.754;2023-08-24T05:05:46;18.50;99.90
30534;DHT22;17318;52.390;9.754;2023-08-24T05:08:12;18.60;99.90
30534;DHT22;17318;52.390;9.754;2023-08-24T05:10:38;18.60;99.90
30534;DHT22;17318;52.390;9.754;2023-08-24T05:13:04;18.70;99.90
30534;DHT22;17318;52.390;9.754;2023-08-24T05:15:29;18.70;99.90
30534;DHT22;17318;52.390;9.754;2023-08-24T05:17:55;18.80;99.90
30534;DHT22;17318;52.390;9.754;2023-08-24T05:20:25;18.80;99.90
30534;DHT22;17318;52.390;9.754;2023-08-24T05:22:52;18.90;99.90
30534;DHT22;17318;52.390;9.754;2023-08-24T05:25:20;18.90;99.90
30534;DHT22;17318;52.390;9.754;2023-08-24T05:27:46;19.00;99.90
30534;DHT22;17318;52.390;9.754;2023-08-24T05:30:11;19.00;99.90
30534;DHT22;17318;52.390;9.754;2023-08-24T05:32:37;19.00;99.90
30534;DHT22;17318;52.390;9.754;2023-08-24T05:35:07;19.00;99.90
30534;DHT22;17318;52.390;9.754;2023-08-24T05:37:33;19.00;99.90
30534;DHT22;17318;52.390;9.754;2023-08-24T05:39:59;19.10;99.90
30534;DHT22;17318;52.390;9.754;2023-08-24T05:42:25;19.10;99.90
30534;DHT22;17318;52.390;9.754;2023-08-24T05:44:50;19.20;99.90
30534;DHT22;17318;52.390;9.754;2023-08-24T05:47:16;19.20;99.90
30534;DHT22;17318;52.390;9.754;2023-08-24T05:49:42;19.20;99.90
30534;DHT22;17318;52.390;9.754;2023-08-24T05:52:07;19.30;99.90
30534;DHT22;17318;52.390;9.754;2023-08-24T05:54:33;19.30;99.90
30534;DHT22;17318;52.390;9.754;2023-08-24T05:56:58;19.40;99.90
30534;DHT22;17318;52.390;9.754;2023-08-24T05:59:26;19.40;99.90
30534;DHT22;17318;52.390;9.754;2023-08-24T06:01:52;19.40;99.90
30534;DHT22;17318;52.390;9.754;2023-08-24T06:04:17;19.40;99.90
30534;DHT22;17318;52.390;9.754;2023-08-24T06:06:43;19.50;99.90
30534;DHT22;17318;52.390;9.754;2023-08-24T06:09:08;19.40;99.90
30534;DHT22;17318;52.390;9.754;2023-08-24T06:11:35;19.40;99.90
30534;DHT22;17318;52.390;9.754;2023-08-24T06:14:01;19.40;99.90
30534;DHT22;17318;52.390;9.754;2023-08-24T06:16:27;19.50;99.90
30534;DHT22;17318;52.390;9.754;2023-08-24T06:18:53;19.60;99.90
30534;DHT22;17318;52.390;9.754;2023-08-24T06:21:18;19.60;99.90
30534;DHT22;17318;52.390;9.754;2023-08-24T06:23:44;19.60;99.90
30534;DHT22;17318;52.390;9.754;2023-08-24T06:26:10;19.60;99.90
30534;DHT22;17318;52.390;9.754;2023-08-24T06:28:36;19.60;99.90
30534;DHT22;17318;52.390;9.754;2023-08-24T06:31:01;19.70;99.90
30534;DHT22;17318;52.390;9.754;2023-08-24T06:33:27;19.70;99.90
30534;DHT22;17318;52.390;9.754;2023-08-24T06:35:58;19.70;99.90
30534;DHT22;17318;52.390;9.754;2023-08-24T06:38:23;19.80;99.90
30534;DHT22;17318;52.390;9.754;2023-08-24T06:40:49;19.80;99.90
30534;DHT22;17318;52.390;9.754;2023-08-24T06:43:15;19.80;99.90
30534;DHT22;17318;52.390;9.754;2023-08-24T06:45:40;19.80;99.90
30534;DHT22;17318;52.390;9.754;2023-08-24T06:48:06;19.80;99.90
30534;DHT22;17318;52.390;9.754;2023-08-24T06:50:35;19.90;99.90
30534;DHT22;17318;52.390;9.754;2023-08-24T06:53:02;19.90;99.90
30534;DHT22;17318;52.390;9.754;2023-08-24T06:55:28;20.00;99.90
30534;DHT22;17318;52.390;9.754;2023-08-24T06:57:54;20.00;99.90
30534;DHT22;17318;52.390;9.754;2023-08-24T07:00:20;20.00;99.90
30534;DHT22;17318;52.390;9.754;2023-08-24T07:02:46;20.20;99.90
30534;DHT22;17318;52.390;9.754;2023-08-24T07:05:12;20.20;99.90
30534;DHT22;17318;52.390;9.754;2023-08-24T07:07:38;20.30;99.90
30534;DHT22;17318;52.390;9.754;2023-08-24T07:10:03;20.30;99.90
30534;DHT22;17318;52.390;9.754;2023-08-24T07:12:29;20.40;99.90
30534;DHT22;17318;52.390;9.754;2023-08-24T07:14:54;20.50;99.90
30534;DHT22;17318;52.390;9.754;2023-08-24T07:17:20;20.70;99.90
30534;DHT22;17318;52.390;9.754;2023-08-24T07:19:46;20.80;99.90
30534;DHT22;17318;52.390;9.754;2023-08-24T07:22:11;20.90;99.90
30534;DHT22;17318;52.390;9.754;2023-08-24T07:24:37;21.00;99.90
30534;DHT22;17318;52.390;9.754;2023-08-24T07:27:02;21.00;99.90
30534;DHT22;17318;52.390;9.754;2023-08-24T07:29:29;21.10;99.90
30534;DHT22;17318;52.390;9.754;2023-08-24T07:31:54;21.10;99.90
30534;DHT22;17318;52.390;9.754;2023-08-24T07:34:20;21.10;99.90
30534;DHT22;17318;52.390;9.754;2023-08-24T07:36:47;21.20;99.90
30534;DHT22;17318;52.390;9.754;2023-08-24T07:39:14;21.30;99.90
30534;DHT22;17318;52.390;9.754;2023-08-24T07:41:41;21.30;99.90
30534;DHT22;17318;52.390;9.754;2023-08-24T07:44:06;21.30;99.90
30534;DHT22;17318;52.390;9.754;2023-08-24T07:46:32;21.40;99.90
30534;DHT22;17318;52.390;9.754;2023-08-24T07:48:58;21.50;99.90
30534;DHT22;17318;52.390;9.754;2023-08-24T07:51:23;21.50;99.90
30534;DHT22;17318;52.390;9.754;2023-08-24T07:53:49;21.70;99.90
30534;DHT22;17318;52.390;9.754;2023-08-24T07:56:17;21.70;99.90
30534;DHT22;17318;52.390;9.754;2023-08-24T07:58:43;21.60;99.90
30534;DHT22;17318;52.390;9.754;2023-08-24T08:01:08;21.70;99.90
30534;DHT22;17318;52.390;9.754;2023-08-24T08:03:34;21.80;99.90
30534;DHT22;17318;52.390;9.754;2023-08-24T08:06:01;21.80;99.90
30534;DHT22;17318;52.390;9.754;2023-08-24T08:08:26;21.90;99.90
30534;DHT22;17318;52.390;9.754;2023-08-24T08:10:59;22.00;99.90
30534;DHT22;17318;52.390;9.754;2023-08-24T08:13:27;22.20;99.90
30534;DHT22;17318;52.390;9.754;2023-08-24T08:15:53;22.30;99.90
30534;DHT22;17318;52.390;9.754;2023-08-24T08:18:19;22.40;99.90
30534;DHT22;17318;52.390;9.754;2023-08-24T08:20:44;22.70;99.90
30534;DHT22;17318;52.390;9.754;2023-08-24T08:23:10;23.30;99.70
30534;DHT22;17318;52.390;9.754;2023-08-24T08:25:35;24.30;99.00
30534;DHT22;17318;52.390;9.754;2023-08-24T08:28:01;25.40;96.80
30534;DHT22;17318;52.390;9.754;2023-08-24T08:30:26;26.50;95.60
30534;DHT22;17318;52.390;9.754;2023-08-24T08:32:52;27.20;94.20
30534;DHT22;17318;52.390;9.754;2023-08-24T08:35:19;28.30;93.30
30534;DHT22;17318;52.390;9.754;2023-08-24T08:37:45;29.50;93.00
30534;DHT22;17318;52.390;9.754;2023-08-24T08:40:11;30.70;90.80
30534;DHT22;17318;52.390;9.754;2023-08-24T08:42:36;31.30;87.10
30534;DHT22;17318;52.390;9.754;2023-08-24T08:45:03;31.40;84.40
30534;DHT22;17318;52.390;9.754;2023-08-24T08:47:29;31.90;83.50
30534;DHT22;17318;52.390;9.754;2023-08-24T08:49:55;32.50;79.20
30534;DHT22;17318;52.390;9.754;2023-08-24T08:52:22;33.20;80.70
30534;DHT22;17318;52.390;9.754;2023-08-24T08:54:47;33.30;76.90
30534;DHT22;17318;52.390;9.754;2023-08-24T08:57:13;33.50;75.90
30534;DHT22;17318;52.390;9.754;2023-08-24T08:59:40;34.80;74.50
30534;DHT22;17318;52.390;9.754;2023-08-24T09:02:06;35.30;71.20
30534;DHT22;17318;52.390;9.754;2023-08-24T09:04:34;35.30;70.60
30534;DHT22;17318;52.390;9.754;2023-08-24T09:07:00;35.90;68.90
30534;DHT22;17318;52.390;9.754;2023-08-24T09:09:33;36.70;67.50
30534;DHT22;17318;52.390;9.754;2023-08-24T09:11:59;36.80;66.60
30534;DHT22;17318;52.390;9.754;2023-08-24T09:14:24;37.10;64.50
30534;DHT22;17318;52.390;9.754;2023-08-24T09:16:50;37.10;61.40
30534;DHT22;17318;52.390;9.754;2023-08-24T09:19:16;37.40;64.20
30534;DHT22;17318;52.390;9.754;2023-08-24T09:21:41;38.40;61.10
30534;DHT22;17318;52.390;9.754;2023-08-24T09:24:07;38.40;60.50
30534;DHT22;17318;52.390;9.754;2023-08-24T09:26:34;38.60;58.90
30534;DHT22;17318;52.390;9.754;2023-08-24T09:29:00;38.10;60.40
30534;DHT22;17318;52.390;9.754;2023-08-24T09:31:34;37.80;58.80
30534;DHT22;17318;52.390;9.754;2023-08-24T09:34:01;38.40;59.40
30534;DHT22;17318;52.390;9.754;2023-08-24T09:36:28;38.60;57.60
30534;DHT22;17318;52.390;9.754;2023-08-24T09:38:56;39.10;57.40
30534;DHT22;17318;52.390;9.754;2023-08-24T09:41:21;39.40;56.10
30534;DHT22;17318;52.390;9.754;2023-08-24T09:43:47;39.30;56.00
30534;DHT22;17318;52.390;9.754;2023-08-24T09:46:12;39.10;55.40
30534;DHT22;17318;52.390;9.754;2023-08-24T09:48:43;38.90;56.20
30534;DHT22;17318;52.390;9.754;2023-08-24T09:51:09;39.30;53.90
30534;DHT22;17318;52.390;9.754;2023-08-24T09:53:36;39.60;54.80
30534;DHT22;17318;52.390;9.754;2023-08-24T09:56:03;39.60;54.10
30534;DHT22;17318;52.390;9.754;2023-08-24T09:58:31;39.50;52.30
30534;DHT22;17318;52.390;9.754;2023-08-24T10:00:56;39.20;53.90
30534;DHT22;17318;52.390;9.754;2023-08-24T10:03:25;39.30;52.10
30534;DHT22;17318;52.390;9.754;2023-08-24T10:05:51;39.70;53.20
30534;DHT22;17318;52.390;9.754;2023-08-24T10:08:24;40.00;53.10
30534;DHT22;17318;52.390;9.754;2023-08-24T10:10:55;40.40;52.20
30534;DHT22;17318;52.390;9.754;2023-08-24T10:13:23;40.30;50.40
30534;DHT22;17318;52.390;9.754;2023-08-24T10:15:50;39.30;50.90
30534;DHT22;17318;52.390;9.754;2023-08-24T10:18:16;40.40;50.90
30534;DHT22;17318;52.390;9.754;2023-08-24T10:20:42;40.70;50.00
30534;DHT22;17318;52.390;9.754;2023-08-24T10:23:11;40.50;50.10
30534;DHT22;17318;52.390;9.754;2023-08-24T10:25:38;40.40;49.50
30534;DHT22;17318;52.390;9.754;2023-08-24T10:28:05;40.90;48.90
30534;DHT22;17318;52.390;9.754;2023-08-24T10:30:31;40.50;48.40
30534;DHT22;17318;52.390;9.754;2023-08-24T10:32:57;40.20;49.10
30534;DHT22;17318;52.390;9.754;2023-08-24T10:35:23;39.60;49.90
30534;DHT22;17318;52.390;9.754;2023-08-24T10:37:51;39.10;48.60
30534;DHT22;17318;52.390;9.754;2023-08-24T10:40:30;38.90;50.20
30534;DHT22;17318;52.390;9.754;2023-08-24T10:42:55;38.70;50.60
30534;DHT22;17318;52.390;9.754;2023-08-24T10:45:22;39.10;50.40
30534;DHT22;17318;52.390;9.754;2023-08-24T10:47:48;38.40;51.00
30534;DHT22;17318;52.390;9.754;2023-08-24T10:50:17;38.10;50.80
30534;DHT22;17318;52.390;9.754;2023-08-24T10:52:43;37.20;50.80
30534;DHT22;17318;52.390;9.754;2023-08-24T10:55:26;36.50;53.60
30534;DHT22;17318;52.390;9.754;2023-08-24T10:57:55;36.50;52.40
30534;DHT22;17318;52.390;9.754;2023-08-24T11:00:21;36.30;53.10
30534;DHT22;17318;52.390;9.754;2023-08-24T11:02:49;36.10;53.30
30534;DHT22;17318;52.390;9.754;2023-08-24T11:05:16;35.10;54.40
30534;DHT22;17318;52.390;9.754;2023-08-24T11:07:57;34.50;55.40
30534;DHT22;17318;52.390;9.754;2023-08-24T11:10:24;34.20;56.60
30534;DHT22;17318;52.390;9.754;2023-08-24T11:15:37;34.30;56.40
30534;DHT22;17318;52.390;9.754;2023-08-24T11:23:17;32.60;58.70
30534;DHT22;17318;52.390;9.754;2023-08-24T11:25:44;32.40;59.10
30534;DHT22;17318;52.390;9.754;2023-08-24T11:28:10;32.10;59.70
30534;DHT22;17318;52.390;9.754;2023-08-24T11:30:35;32.50;60.30
30534;DHT22;17318;52.390;9.754;2023-08-24T11:33:01;32.60;59.90
30534;DHT22;17318;52.390;9.754;2023-08-24T11:35:28;32.70;60.10
30534;DHT22;17318;52.390;9.754;2023-08-24T11:37:57;32.40;60.40
30534;DHT22;17318;52.390;9.754;2023-08-24T11:40:23;32.40;60.30
30534;DHT22;17318;52.390;9.754;2023-08-24T11:42:55;32.40;60.20
30534;DHT22;17318;52.390;9.754;2023-08-24T11:45:21;31.90;60.30
30534;DHT22;17318;52.390;9.754;2023-08-24T11:47:47;31.80;60.90
30534;DHT22;17318;52.390;9.754;2023-08-24T11:50:13;31.70;61.40
30534;DHT22;17318;52.390;9.754;2023-08-24T11:52:39;31.60;62.00
30534;DHT22;17318;52.390;9.754;2023-08-24T11:55:05;31.60;60.80
30534;DHT22;17318;52.390;9.754;2023-08-24T11:57:35;31.30;61.30
30534;DHT22;17318;52.390;9.754;2023-08-24T12:00:04;31.10;61.80
30534;DHT22;17318;52.390;9.754;2023-08-24T12:02:31;31.20;61.00
30534;DHT22;17318;52.390;9.754;2023-08-24T12:04:57;31.20;60.90
30534;DHT22;17318;52.390;9.754;2023-08-24T12:07:22;30.90;60.00
30534;DHT22;17318;52.390;9.754;2023-08-24T12:09:48;30.90;60.20
30534;DHT22;17318;52.390;9.754;2023-08-24T12:12:18;31.00;60.00
30534;DHT22;17318;52.390;9.754;2023-08-24T12:14:46;30.90;60.60
30534;DHT22;17318;52.390;9.754;2023-08-24T12:17:12;30.80;60.30
30534;DHT22;17318;52.390;9.754;2023-08-24T12:19:41;30.70;61.60
30534;DHT22;17318;52.390;9.754;2023-08-24T12:22:12;30.60;62.50
30534;DHT22;17318;52.390;9.754;2023-08-24T12:24:37;30.60;63.20
30534;DHT22;17318;52.390;9.754;2023-08-24T12:27:08;30.60;62.10
30534;DHT22;17318;52.390;9.754;2023-08-24T12:29:34;30.40;61.80
30534;DHT22;17318;52.390;9.754;2023-08-24T12:32:00;30.50;61.90
30534;DHT22;17318;52.390;9.754;2023-08-24T12:34:25;30.50;62.30
30534;DHT22;17318;52.390;9.754;2023-08-24T12:36:51;30.60;62.20
30534;DHT22;17318;52.390;9.754;2023-08-24T12:39:16;30.50;62.80
30534;DHT22;17318;52.390;9.754;2023-08-24T12:41:42;30.60;62.50
30534;DHT22;17318;52.390;9.754;2023-08-24T12:44:08;30.70;61.80
30534;DHT22;17318;52.390;9.754;2023-08-24T12:46:34;30.60;61.80
30534;DHT22;17318;52.390;9.754;2023-08-24T12:49:00;30.60;62.30
30534;DHT22;17318;52.390;9.754;2023-08-24T12:51:26;30.60;62.10
30534;DHT22;17318;52.390;9.754;2023-08-24T12:53:52;30.60;62.00
30534;DHT22;17318;52.390;9.754;2023-08-24T12:56:17;30.50;63.10
30534;DHT22;17318;52.390;9.754;2023-08-24T12:58:43;30.60;62.80
30534;DHT22;17318;52.390;9.754;2023-08-24T13:01:08;30.50;63.50
30534;DHT22;17318;52.390;9.754;2023-08-24T13:03:34;30.50;63.80
30534;DHT22;17318;52.390;9.754;2023-08-24T13:06:01;30.50;63.60
30534;DHT22;17318;52.390;9.754;2023-08-24T13:08:26;30.50;63.90
30534;DHT22;17318;52.390;9.754;2023-08-24T13:10:52;30.50;64.40
30534;DHT22;17318;52.390;9.754;2023-08-24T13:13:18;30.50;64.50
30534;DHT22;17318;52.390;9.754;2023-08-24T13:15:47;30.30;63.80
30534;DHT22;17318;52.390;9.754;2023-08-24T13:18:13;30.40;64.70
30534;DHT22;17318;52.390;9.754;2023-08-24T13:20:38;30.40;65.00
30534;DHT22;17318;52.390;9.754;2023-08-24T13:23:04;30.40;65.10
30534;DHT22;17318;52.390;9.754;2023-08-24T13:25:30;30.30;65.50
30534;DHT22;17318;52.390;9.754;2023-08-24T13:27:55;30.30;65.60
30534;DHT22;17318;52.390;9.754;2023-08-24T13:30:21;30.30;65.80
30534;DHT22;17318;52.390;9.754;2023-08-24T13:32:47;30.20;65.00
30534;DHT22;17318;52.390;9.754;2023-08-24T13:35:12;30.20;64.30
30534;DHT22;17318;52.390;9.754;2023-08-24T13:37:38;30.00;64.40
30534;DHT22;17318;52.390;9.754;2023-08-24T13:40:04;30.00;63.60
30534;DHT22;17318;52.390;9.754;2023-08-24T13:42:30;30.00;63.50
30534;DHT22;17318;52.390;9.754;2023-08-24T13:44:56;29.90;62.70
30534;DHT22;17318;52.390;9.754;2023-08-24T13:47:21;30.00;62.80
30534;DHT22;17318;52.390;9.754;2023-08-24T13:49:47;29.90;61.90
30534;DHT22;17318;52.390;9.754;2023-08-24T13:52:13;29.90;62.80
30534;DHT22;17318;52.390;9.754;2023-08-24T13:54:39;29.90;63.20
30534;DHT22;17318;52.390;9.754;2023-08-24T13:57:04;29.80;63.40
30534;DHT22;17318;52.390;9.754;2023-08-24T13:59:31;29.70;63.50
30534;DHT22;17318;52.390;9.754;2023-08-24T14:01:57;29.60;64.80
30534;DHT22;17318;52.390;9.754;2023-08-24T14:04:22;29.60;65.10
30534;DHT22;17318;52.390;9.754;2023-08-24T14:06:48;29.50;65.30
30534;DHT22;17318;52.390;9.754;2023-08-24T14:09:14;29.60;65.60
30534;DHT22;17318;52.390;9.754;2023-08-24T14:11:39;29.60;64.80
30534;DHT22;17318;52.390;9.754;2023-08-24T14:14:05;29.50;64.30
30534;DHT22;17318;52.390;9.754;2023-08-24T14:16:35;29.60;64.90
30534;DHT22;17318;52.390;9.754;2023-08-24T14:19:00;29.60;63.50
30534;DHT22;17318;52.390;9.754;2023-08-24T14:21:26;29.50;63.30
30534;DHT22;17318;52.390;9.754;2023-08-24T14:23:51;29.40;63.50
30534;DHT22;17318;52.390;9.754;2023-08-24T14:26:17;29.40;64.20
30534;DHT22;17318;52.390;9.754;2023-08-24T14:28:47;29.30;64.80
30534;DHT22;17318;52.390;9.754;2023-08-24T14:31:13;29.20;64.60
30534;DHT22;17318;52.390;9.754;2023-08-24T14:33:38;29.20;65.00
30534;DHT22;17318;52.390;9.754;2023-08-24T14:36:04;29.20;65.60
30534;DHT22;17318;52.390;9.754;2023-08-24T14:38:29;29.20;66.30
30534;DHT22;17318;52.390;9.754;2023-08-24T14:40:55;29.20;66.40
30534;DHT22;17318;52.390;9.754;2023-08-24T14:43:20;29.20;66.60
30534;DHT22;17318;52.390;9.754;2023-08-24T14:45:46;29.20;67.10
30534;DHT22;17318;52.390;9.754;2023-08-24T14:48:12;29.20;66.60
30534;DHT22;17318;52.390;9.754;2023-08-24T14:50:38;29.20;66.40
30534;DHT22;17318;52.390;9.754;2023-08-24T14:53:04;29.10;66.70
30534;DHT22;17318;52.390;9.754;2023-08-24T14:55:29;29.10;66.90
30534;DHT22;17318;52.390;9.754;2023-08-24T14:57:55;29.10;66.70
30534;DHT22;17318;52.390;9.754;2023-08-24T15:00:22;29.00;67.10
30534;DHT22;17318;52.390;9.754;2023-08-24T15:02:48;28.90;67.90
30534;DHT22;17318;52.390;9.754;2023-08-24T15:05:14;28.90;68.30
30534;DHT22;17318;52.390;9.754;2023-08-24T15:07:39;29.00;69.50
30534;DHT22;17318;52.390;9.754;2023-08-24T15:10:05;29.00;69.80
30534;DHT22;17318;52.390;9.754;2023-08-24T15:12:30;29.10;70.00
30534;DHT22;17318;52.390;9.754;2023-08-24T15:14:59;29.00;70.00
30534;DHT22;17318;52.390;9.754;2023-08-24T15:17:26;29.00;70.40
30534;DHT22;17318;52.390;9.754;2023-08-24T15:19:52;29.00;70.80
30534;DHT22;17318;52.390;9.754;2023-08-24T15:22:18;29.00;71.00
30534;DHT22;17318;52.390;9.754;2023-08-24T15:24:43;28.90;71.20
30534;DHT22;17318;52.390;9.754;2023-08-24T15:27:09;28.90;71.80
30534;DHT22;17318;52.390;9.754;2023-08-24T15:29:34;28.90;71.60
30534;DHT22;17318;52.390;9.754;2023-08-24T15:32:00;28.90;71.80
30534;DHT22;17318;52.390;9.754;2023-08-24T15:34:25;28.80;70.90
30534;DHT22;17318;52.390;9.754;2023-08-24T15:36:51;28.70;71.20